Weather at Parana Club De Planeadores Airport

Public forecast

Using degrees Celsius for public forecast. Weather courtesy of forecast.io.

Closest aviation weather report (METAR) to Parana Club De Planeadores Airport

Closest report is Rosario Islas Malvinas International Airport, 76.0 nm (140.7 km) SSW.

2024/07/24 15:00 (retrieved 1 hour ago)

SAAR 241500Z 21007KT CAVOK 20/15 Q1016

Closest aviation forecast (TAF) to Parana Club De Planeadores Airport

Closest forecast is Rosario Islas Malvinas International Airport, 76.0 nm (140.7 km) SSW.

2024/07/24 12:00 (retrieved 4 hours ago)

TAF SAAR 241100Z 2412/2512 VRB05KT 5000 -RA SCT030 BKN050 TX21/2419Z TN05/2510Z TEMPO 2413/2420 4000 SHRA SCT010 FEW040TCU BKN050 BECMG 2420/2422 23010G20KT CAVOK